Terminal Aerodrome Forecast
Issued by NWS Duluth, MN

Home | Current Version | Previous Version | Text Only | Print | Product List | Glossary On
Versions: 1 2 3 4 5 6 7 8 9 10 11 12 13 14 15 16 17 18
000
FTUS43 KDLH 171136
TAFDLH
TAF
KDLH 171136Z 1712/1812 25011G18KT P6SM BKN150 WS020/26043KT
     FM171500 24012G19KT P6SM SCT250 WS020/26046KT
     FM171900 25013G24KT P6SM FEW250
     FM180400 27010G16KT P6SM FEW250
     FM180900 26007KT P6SM BKN090=

USA.gov is the U.S. government's official web portal to all federal, state and local government web resources and services.